sensor_id;sensor_type;location;lat;lon;timestamp;P1;durP1;ratioP1;P2;durP2;ratioP2
68886;SDS011;55925;51.764;6.402;2023-10-09T00:01:05;34.90;;;13.98;;
68886;SDS011;55925;51.764;6.402;2023-10-09T00:03:39;32.90;;;13.50;;
68886;SDS011;55925;51.764;6.402;2023-10-09T00:06:06;34.00;;;14.23;;
68886;SDS011;55925;51.764;6.402;2023-10-09T00:08:32;28.77;;;11.93;;
68886;SDS011;55925;51.764;6.402;2023-10-09T00:11:02;32.20;;;14.90;;
68886;SDS011;55925;51.764;6.402;2023-10-09T00:13:43;27.23;;;12.43;;
68886;SDS011;55925;51.764;6.402;2023-10-09T00:16:18;31.45;;;14.57;;
68886;SDS011;55925;51.764;6.402;2023-10-09T00:19:01;34.38;;;14.20;;
68886;SDS011;55925;51.764;6.402;2023-10-09T00:21:42;30.73;;;13.35;;
68886;SDS011;55925;51.764;6.402;2023-10-09T00:24:09;31.90;;;13.57;;
68886;SDS011;55925;51.764;6.402;2023-10-09T00:26:49;28.17;;;12.98;;
68886;SDS011;55925;51.764;6.402;2023-10-09T00:29:16;32.95;;;12.88;;
68886;SDS011;55925;51.764;6.402;2023-10-09T00:31:49;29.23;;;12.73;;
68886;SDS011;55925;51.764;6.402;2023-10-09T00:34:16;35.60;;;13.77;;
68886;SDS011;55925;51.764;6.402;2023-10-09T00:36:47;31.98;;;14.20;;
68886;SDS011;55925;51.764;6.402;2023-10-09T00:39:17;32.17;;;13.90;;
68886;SDS011;55925;51.764;6.402;2023-10-09T00:41:48;30.08;;;14.10;;
68886;SDS011;55925;51.764;6.402;2023-10-09T00:44:14;34.75;;;15.95;;
68886;SDS011;55925;51.764;6.402;2023-10-09T00:46:40;31.88;;;14.70;;
68886;SDS011;55925;51.764;6.402;2023-10-09T00:49:08;36.42;;;15.18;;
68886;SDS011;55925;51.764;6.402;2023-10-09T00:51:36;37.90;;;14.63;;
68886;SDS011;55925;51.764;6.402;2023-10-09T00:54:05;31.33;;;14.30;;
68886;SDS011;55925;51.764;6.402;2023-10-09T00:56:38;34.22;;;15.05;;
68886;SDS011;55925;51.764;6.402;2023-10-09T00:59:06;31.65;;;13.75;;
68886;SDS011;55925;51.764;6.402;2023-10-09T01:01:45;28.02;;;13.18;;
68886;SDS011;55925;51.764;6.402;2023-10-09T01:04:29;30.05;;;11.95;;
68886;SDS011;55925;51.764;6.402;2023-10-09T01:07:02;33.03;;;13.15;;
68886;SDS011;55925;51.764;6.402;2023-10-09T01:09:40;31.70;;;14.50;;
68886;SDS011;55925;51.764;6.402;2023-10-09T01:12:10;29.63;;;13.60;;
68886;SDS011;55925;51.764;6.402;2023-10-09T01:14:45;32.72;;;15.10;;
68886;SDS011;55925;51.764;6.402;2023-10-09T01:17:17;29.52;;;13.18;;
68886;SDS011;55925;51.764;6.402;2023-10-09T01:19:55;32.38;;;14.07;;
68886;SDS011;55925;51.764;6.402;2023-10-09T01:22:23;32.53;;;14.18;;
68886;SDS011;55925;51.764;6.402;2023-10-09T01:24:49;33.40;;;13.77;;
68886;SDS011;55925;51.764;6.402;2023-10-09T01:27:16;33.95;;;15.68;;
68886;SDS011;55925;51.764;6.402;2023-10-09T01:29:42;36.65;;;15.55;;
68886;SDS011;55925;51.764;6.402;2023-10-09T01:32:09;31.30;;;14.57;;
68886;SDS011;55925;51.764;6.402;2023-10-09T01:34:41;36.35;;;15.75;;
68886;SDS011;55925;51.764;6.402;2023-10-09T01:37:09;31.95;;;13.35;;
68886;SDS011;55925;51.764;6.402;2023-10-09T01:39:50;32.53;;;16.20;;
68886;SDS011;55925;51.764;6.402;2023-10-09T01:42:17;38.55;;;16.25;;
68886;SDS011;55925;51.764;6.402;2023-10-09T01:44:55;34.95;;;15.27;;
68886;SDS011;55925;51.764;6.402;2023-10-09T01:47:23;36.42;;;15.73;;
68886;SDS011;55925;51.764;6.402;2023-10-09T01:49:56;34.40;;;14.45;;
68886;SDS011;55925;51.764;6.402;2023-10-09T01:52:23;36.85;;;14.45;;
68886;SDS011;55925;51.764;6.402;2023-10-09T01:54:50;35.92;;;17.15;;
68886;SDS011;55925;51.764;6.402;2023-10-09T01:57:18;37.08;;;16.30;;
68886;SDS011;55925;51.764;6.402;2023-10-09T01:59:48;35.55;;;15.43;;
68886;SDS011;55925;51.764;6.402;2023-10-09T02:02:18;31.17;;;15.15;;
68886;SDS011;55925;51.764;6.402;2023-10-09T02:05:03;34.72;;;15.52;;
68886;SDS011;55925;51.764;6.402;2023-10-09T02:07:49;39.75;;;15.45;;
68886;SDS011;55925;51.764;6.402;2023-10-09T02:10:19;34.28;;;15.65;;
68886;SDS011;55925;51.764;6.402;2023-10-09T02:13:04;30.73;;;14.05;;
68886;SDS011;55925;51.764;6.402;2023-10-09T02:15:40;34.20;;;14.88;;
68886;SDS011;55925;51.764;6.402;2023-10-09T02:23:37;32.72;;;14.63;;
68886;SDS011;55925;51.764;6.402;2023-10-09T02:26:03;35.55;;;16.40;;
68886;SDS011;55925;51.764;6.402;2023-10-09T02:28:31;34.53;;;15.80;;
68886;SDS011;55925;51.764;6.402;2023-10-09T02:30:58;37.90;;;16.55;;
68886;SDS011;55925;51.764;6.402;2023-10-09T02:33:26;34.38;;;16.08;;
68886;SDS011;55925;51.764;6.402;2023-10-09T02:35:58;36.47;;;18.13;;
68886;SDS011;55925;51.764;6.402;2023-10-09T02:38:30;38.13;;;17.65;;
68886;SDS011;55925;51.764;6.402;2023-10-09T02:41:00;33.65;;;16.52;;
68886;SDS011;55925;51.764;6.402;2023-10-09T02:43:30;34.95;;;15.75;;
68886;SDS011;55925;51.764;6.402;2023-10-09T02:46:09;35.40;;;17.33;;
68886;SDS011;55925;51.764;6.402;2023-10-09T02:48:45;33.25;;;15.55;;
68886;SDS011;55925;51.764;6.402;2023-10-09T02:51:21;42.63;;;17.08;;
68886;SDS011;55925;51.764;6.402;2023-10-09T02:53:51;32.10;;;16.17;;
68886;SDS011;55925;51.764;6.402;2023-10-09T02:56:17;30.88;;;16.05;;
68886;SDS011;55925;51.764;6.402;2023-10-09T02:58:50;32.72;;;15.50;;
68886;SDS011;55925;51.764;6.402;2023-10-09T03:01:16;31.02;;;14.98;;
68886;SDS011;55925;51.764;6.402;2023-10-09T03:03:42;36.13;;;16.30;;
68886;SDS011;55925;51.764;6.402;2023-10-09T03:06:15;31.50;;;15.30;;
68886;SDS011;55925;51.764;6.402;2023-10-09T03:08:50;28.90;;;14.98;;
68886;SDS011;55925;51.764;6.402;2023-10-09T03:11:16;32.60;;;15.80;;
68886;SDS011;55925;51.764;6.402;2023-10-09T03:13:44;33.42;;;16.67;;
68886;SDS011;55925;51.764;6.402;2023-10-09T03:16:10;29.60;;;14.50;;
68886;SDS011;55925;51.764;6.402;2023-10-09T03:18:41;34.28;;;14.95;;
68886;SDS011;55925;51.764;6.402;2023-10-09T03:21:07;29.83;;;14.77;;
68886;SDS011;55925;51.764;6.402;2023-10-09T03:23:34;30.90;;;16.08;;
68886;SDS011;55925;51.764;6.402;2023-10-09T03:26:00;32.33;;;14.73;;
68886;SDS011;55925;51.764;6.402;2023-10-09T03:28:28;31.50;;;15.80;;
68886;SDS011;55925;51.764;6.402;2023-10-09T03:30:54;36.28;;;15.75;;
68886;SDS011;55925;51.764;6.402;2023-10-09T03:33:20;34.38;;;17.05;;
68886;SDS011;55925;51.764;6.402;2023-10-09T03:35:48;28.70;;;14.90;;
68886;SDS011;55925;51.764;6.402;2023-10-09T03:38:14;31.10;;;16.05;;
68886;SDS011;55925;51.764;6.402;2023-10-09T03:40:43;30.35;;;14.65;;
68886;SDS011;55925;51.764;6.402;2023-10-09T03:43:13;28.30;;;13.43;;
68886;SDS011;55925;51.764;6.402;2023-10-09T03:45:39;31.40;;;14.52;;
68886;SDS011;55925;51.764;6.402;2023-10-09T03:48:19;30.08;;;15.18;;
68886;SDS011;55925;51.764;6.402;2023-10-09T03:50:56;30.75;;;13.95;;
68886;SDS011;55925;51.764;6.402;2023-10-09T03:53:36;31.25;;;14.30;;
68886;SDS011;55925;51.764;6.402;2023-10-09T03:56:04;28.13;;;14.43;;
68886;SDS011;55925;51.764;6.402;2023-10-09T03:58:36;26.95;;;13.52;;
68886;SDS011;55925;51.764;6.402;2023-10-09T04:01:07;31.42;;;15.02;;
68886;SDS011;55925;51.764;6.402;2023-10-09T04:03:35;33.78;;;15.05;;
68886;SDS011;55925;51.764;6.402;2023-10-09T04:06:02;28.42;;;13.13;;
68886;SDS011;55925;51.764;6.402;2023-10-09T04:08:29;28.77;;;14.88;;
68886;SDS011;55925;51.764;6.402;2023-10-09T04:10:55;27.63;;;13.15;;
68886;SDS011;55925;51.764;6.402;2023-10-09T04:13:30;28.05;;;14.57;;
68886;SDS011;55925;51.764;6.402;2023-10-09T04:16:00;27.35;;;14.48;;
68886;SDS011;55925;51.764;6.402;2023-10-09T04:18:36;26.92;;;14.23;;
68886;SDS011;55925;51.764;6.402;2023-10-09T04:21:04;27.83;;;15.50;;
68886;SDS011;55925;51.764;6.402;2023-10-09T04:23:43;31.88;;;14.30;;
68886;SDS011;55925;51.764;6.402;2023-10-09T04:26:25;27.05;;;13.35;;
68886;SDS011;55925;51.764;6.402;2023-10-09T04:28:51;27.85;;;13.30;;
68886;SDS011;55925;51.764;6.402;2023-10-09T04:31:18;28.10;;;14.75;;
68886;SDS011;55925;51.764;6.402;2023-10-09T04:33:45;30.38;;;14.35;;
68886;SDS011;55925;51.764;6.402;2023-10-09T04:36:11;28.55;;;13.63;;
68886;SDS011;55925;51.764;6.402;2023-10-09T04:38:43;27.17;;;13.43;;
68886;SDS011;55925;51.764;6.402;2023-10-09T04:41:21;29.40;;;14.55;;
68886;SDS011;55925;51.764;6.402;2023-10-09T04:43:55;24.00;;;12.02;;
68886;SDS011;55925;51.764;6.402;2023-10-09T04:46:37;27.17;;;11.65;;
68886;SDS011;55925;51.764;6.402;2023-10-09T04:49:09;26.58;;;14.20;;
68886;SDS011;55925;51.764;6.402;2023-10-09T04:52:01;25.27;;;12.10;;
68886;SDS011;55925;51.764;6.402;2023-10-09T04:54:34;28.42;;;13.15;;
68886;SDS011;55925;51.764;6.402;2023-10-09T04:57:26;27.10;;;12.73;;
68886;SDS011;55925;51.764;6.402;2023-10-09T04:59:52;25.55;;;12.05;;
68886;SDS011;55925;51.764;6.402;2023-10-09T05:02:23;26.30;;;13.07;;
68886;SDS011;55925;51.764;6.402;2023-10-09T05:04:49;24.40;;;12.63;;
68886;SDS011;55925;51.764;6.402;2023-10-09T05:07:38;25.60;;;12.68;;
68886;SDS011;55925;51.764;6.402;2023-10-09T05:10:30;27.15;;;13.50;;
68886;SDS011;55925;51.764;6.402;2023-10-09T05:12:57;24.10;;;12.57;;
68886;SDS011;55925;51.764;6.402;2023-10-09T05:15:23;28.40;;;14.00;;
68886;SDS011;55925;51.764;6.402;2023-10-09T05:17:55;26.23;;;13.13;;
68886;SDS011;55925;51.764;6.402;2023-10-09T05:20:34;25.17;;;13.52;;
68886;SDS011;55925;51.764;6.402;2023-10-09T05:23:20;22.48;;;11.68;;
68886;SDS011;55925;51.764;6.402;2023-10-09T05:25:50;27.58;;;12.65;;
68886;SDS011;55925;51.764;6.402;2023-10-09T05:28:20;26.40;;;13.27;;
68886;SDS011;55925;51.764;6.402;2023-10-09T05:30:50;27.80;;;13.55;;
68886;SDS011;55925;51.764;6.402;2023-10-09T05:33:28;25.75;;;12.65;;
68886;SDS011;55925;51.764;6.402;2023-10-09T05:35:54;28.48;;;13.48;;
68886;SDS011;55925;51.764;6.402;2023-10-09T05:38:38;28.45;;;13.80;;
68886;SDS011;55925;51.764;6.402;2023-10-09T05:41:11;28.13;;;12.90;;
68886;SDS011;55925;51.764;6.402;2023-10-09T05:43:55;27.73;;;13.68;;
68886;SDS011;55925;51.764;6.402;2023-10-09T05:46:40;21.90;;;12.02;;
68886;SDS011;55925;51.764;6.402;2023-10-09T05:49:26;25.30;;;13.35;;
68886;SDS011;55925;51.764;6.402;2023-10-09T05:52:10;28.85;;;12.70;;
68886;SDS011;55925;51.764;6.402;2023-10-09T05:54:55;24.65;;;12.68;;
68886;SDS011;55925;51.764;6.402;2023-10-09T05:57:39;26.67;;;12.45;;
68886;SDS011;55925;51.764;6.402;2023-10-09T06:00:25;28.15;;;14.82;;
68886;SDS011;55925;51.764;6.402;2023-10-09T06:03:10;27.83;;;14.70;;
68886;SDS011;55925;51.764;6.402;2023-10-09T06:05:48;28.35;;;13.98;;
68886;SDS011;55925;51.764;6.402;2023-10-09T06:08:21;32.22;;;13.38;;
68886;SDS011;55925;51.764;6.402;2023-10-09T06:10:52;29.52;;;13.32;;
68886;SDS011;55925;51.764;6.402;2023-10-09T06:13:32;23.60;;;13.43;;
68886;SDS011;55925;51.764;6.402;2023-10-09T06:16:02;29.40;;;13.68;;
68886;SDS011;55925;51.764;6.402;2023-10-09T06:18:44;25.08;;;13.07;;
68886;SDS011;55925;51.764;6.402;2023-10-09T06:21:11;25.63;;;13.75;;
68886;SDS011;55925;51.764;6.402;2023-10-09T06:23:55;27.33;;;14.60;;
68886;SDS011;55925;51.764;6.402;2023-10-09T06:26:48;26.42;;;12.82;;
68886;SDS011;55925;51.764;6.402;2023-10-09T06:29:23;31.52;;;15.65;;
68886;SDS011;55925;51.764;6.402;2023-10-09T06:34:47;23.38;;;13.23;;
68886;SDS011;55925;51.764;6.402;2023-10-09T06:37:19;30.10;;;14.65;;
68886;SDS011;55925;51.764;6.402;2023-10-09T06:39:49;26.42;;;13.63;;
68886;SDS011;55925;51.764;6.402;2023-10-09T06:42:15;29.55;;;15.07;;
68886;SDS011;55925;51.764;6.402;2023-10-09T06:45:09;27.60;;;13.35;;
68886;SDS011;55925;51.764;6.402;2023-10-09T06:47:38;25.38;;;14.18;;
68886;SDS011;55925;51.764;6.402;2023-10-09T06:50:17;26.00;;;12.80;;
68886;SDS011;55925;51.764;6.402;2023-10-09T06:52:46;25.67;;;13.65;;
68886;SDS011;55925;51.764;6.402;2023-10-09T06:55:38;27.52;;;12.90;;
68886;SDS011;55925;51.764;6.402;2023-10-09T06:58:20;28.58;;;13.52;;
68886;SDS011;55925;51.764;6.402;2023-10-09T07:00:54;25.73;;;12.80;;
68886;SDS011;55925;51.764;6.402;2023-10-09T07:03:23;28.73;;;13.07;;
68886;SDS011;55925;51.764;6.402;2023-10-09T07:06:07;25.27;;;14.18;;
68886;SDS011;55925;51.764;6.402;2023-10-09T07:08:55;27.17;;;14.57;;
68886;SDS011;55925;51.764;6.402;2023-10-09T07:14:07;26.55;;;13.40;;
68886;SDS011;55925;51.764;6.402;2023-10-09T07:16:54;25.20;;;12.40;;
68886;SDS011;55925;51.764;6.402;2023-10-09T07:19:26;28.85;;;13.57;;
68886;SDS011;55925;51.764;6.402;2023-10-09T07:22:08;25.08;;;12.40;;
68886;SDS011;55925;51.764;6.402;2023-10-09T07:24:46;27.45;;;13.93;;
68886;SDS011;55925;51.764;6.402;2023-10-09T07:27:26;27.33;;;13.57;;
68886;SDS011;55925;51.764;6.402;2023-10-09T07:30:20;24.33;;;12.65;;
68886;SDS011;55925;51.764;6.402;2023-10-09T07:33:06;30.20;;;13.68;;
68886;SDS011;55925;51.764;6.402;2023-10-09T07:35:35;26.02;;;13.55;;
68886;SDS011;55925;51.764;6.402;2023-10-09T07:38:08;27.10;;;13.43;;
68886;SDS011;55925;51.764;6.402;2023-10-09T07:40:34;23.63;;;12.90;;
68886;SDS011;55925;51.764;6.402;2023-10-09T07:43:20;26.73;;;12.35;;
68886;SDS011;55925;51.764;6.402;2023-10-09T07:45:49;26.88;;;12.55;;
68886;SDS011;55925;51.764;6.402;2023-10-09T07:48:15;27.50;;;12.32;;
68886;SDS011;55925;51.764;6.402;2023-10-09T07:50:41;25.02;;;13.07;;
68886;SDS011;55925;51.764;6.402;2023-10-09T07:53:13;28.88;;;14.05;;
68886;SDS011;55925;51.764;6.402;2023-10-09T07:55:40;24.33;;;13.68;;
68886;SDS011;55925;51.764;6.402;2023-10-09T07:58:14;26.80;;;13.60;;
68886;SDS011;55925;51.764;6.402;2023-10-09T08:00:40;29.33;;;13.43;;
68886;SDS011;55925;51.764;6.402;2023-10-09T08:03:31;25.38;;;12.07;;
68886;SDS011;55925;51.764;6.402;2023-10-09T08:05:59;25.70;;;12.73;;
68886;SDS011;55925;51.764;6.402;2023-10-09T08:08:43;24.25;;;12.90;;
68886;SDS011;55925;51.764;6.402;2023-10-09T08:11:29;27.15;;;12.93;;
68886;SDS011;55925;51.764;6.402;2023-10-09T08:14:10;25.38;;;12.63;;
68886;SDS011;55925;51.764;6.402;2023-10-09T08:16:45;28.10;;;12.90;;
68886;SDS011;55925;51.764;6.402;2023-10-09T08:19:11;31.83;;;13.82;;
68886;SDS011;55925;51.764;6.402;2023-10-09T08:21:56;25.20;;;12.32;;
68886;SDS011;55925;51.764;6.402;2023-10-09T08:24:41;25.05;;;13.85;;
68886;SDS011;55925;51.764;6.402;2023-10-09T08:27:07;25.75;;;13.32;;
68886;SDS011;55925;51.764;6.402;2023-10-09T08:29:52;23.25;;;12.20;;
68886;SDS011;55925;51.764;6.402;2023-10-09T08:32:37;26.38;;;12.40;;
68886;SDS011;55925;51.764;6.402;2023-10-09T08:35:04;26.58;;;13.85;;
68886;SDS011;55925;51.764;6.402;2023-10-09T08:37:44;23.52;;;12.75;;
68886;SDS011;55925;51.764;6.402;2023-10-09T08:40:14;26.08;;;13.30;;
68886;SDS011;55925;51.764;6.402;2023-10-09T08:42:44;28.50;;;12.93;;
68886;SDS011;55925;51.764;6.402;2023-10-09T08:47:41;24.15;;;11.38;;
68886;SDS011;55925;51.764;6.402;2023-10-09T08:50:07;21.27;;;11.48;;
68886;SDS011;55925;51.764;6.402;2023-10-09T08:52:38;25.52;;;12.68;;
68886;SDS011;55925;51.764;6.402;2023-10-09T08:55:04;22.77;;;12.25;;
68886;SDS011;55925;51.764;6.402;2023-10-09T08:57:30;24.90;;;12.93;;
68886;SDS011;55925;51.764;6.402;2023-10-09T08:59:57;20.67;;;11.40;;
68886;SDS011;55925;51.764;6.402;2023-10-09T09:02:23;23.13;;;11.30;;
68886;SDS011;55925;51.764;6.402;2023-10-09T09:04:49;24.63;;;12.25;;
68886;SDS011;55925;51.764;6.402;2023-10-09T09:09:57;22.73;;;12.10;;
68886;SDS011;55925;51.764;6.402;2023-10-09T09:12:28;23.52;;;11.77;;
68886;SDS011;55925;51.764;6.402;2023-10-09T09:15:02;22.65;;;11.60;;
68886;SDS011;55925;51.764;6.402;2023-10-09T09:17:32;25.13;;;12.98;;
68886;SDS011;55925;51.764;6.402;2023-10-09T09:19:59;22.55;;;11.80;;
68886;SDS011;55925;51.764;6.402;2023-10-09T09:22:26;20.35;;;11.70;;
68886;SDS011;55925;51.764;6.402;2023-10-09T09:24:58;24.45;;;11.73;;
68886;SDS011;55925;51.764;6.402;2023-10-09T09:27:44;23.23;;;10.85;;
68886;SDS011;55925;51.764;6.402;2023-10-09T09:30:24;25.00;;;11.82;;
68886;SDS011;55925;51.764;6.402;2023-10-09T09:32:51;22.13;;;11.02;;
68886;SDS011;55925;51.764;6.402;2023-10-09T09:35:37;26.38;;;11.93;;
68886;SDS011;55925;51.764;6.402;2023-10-09T09:38:04;24.90;;;12.60;;
68886;SDS011;55925;51.764;6.402;2023-10-09T09:40:31;25.48;;;12.77;;
68886;SDS011;55925;51.764;6.402;2023-10-09T09:43:06;24.80;;;12.88;;
68886;SDS011;55925;51.764;6.402;2023-10-09T09:45:38;25.92;;;13.10;;
68886;SDS011;55925;51.764;6.402;2023-10-09T09:48:11;25.13;;;13.80;;
68886;SDS011;55925;51.764;6.402;2023-10-09T09:50:40;23.35;;;12.32;;
68886;SDS011;55925;51.764;6.402;2023-10-09T09:53:10;22.85;;;12.10;;
68886;SDS011;55925;51.764;6.402;2023-10-09T09:55:38;30.65;;;12.55;;
68886;SDS011;55925;51.764;6.402;2023-10-09T09:58:07;24.63;;;12.88;;
68886;SDS011;55925;51.764;6.402;2023-10-09T10:00:43;24.85;;;12.23;;
68886;SDS011;55925;51.764;6.402;2023-10-09T10:03:44;22.80;;;12.00;;
68886;SDS011;55925;51.764;6.402;2023-10-09T10:06:04;21.92;;;11.77;;
68886;SDS011;55925;51.764;6.402;2023-10-09T10:08:35;24.05;;;13.13;;
68886;SDS011;55925;51.764;6.402;2023-10-09T10:11:04;23.58;;;13.48;;
68886;SDS011;55925;51.764;6.402;2023-10-09T10:21:39;27.48;;;13.23;;
68886;SDS011;55925;51.764;6.402;2023-10-09T10:32:58;24.40;;;11.48;;
68886;SDS011;55925;51.764;6.402;2023-10-09T10:35:24;20.85;;;11.25;;
68886;SDS011;55925;51.764;6.402;2023-10-09T10:41:12;19.75;;;11.98;;
68886;SDS011;55925;51.764;6.402;2023-10-09T10:43:45;21.67;;;11.25;;
68886;SDS011;55925;51.764;6.402;2023-10-09T10:46:12;17.95;;;10.32;;
68886;SDS011;55925;51.764;6.402;2023-10-09T10:49:10;22.75;;;11.43;;
68886;SDS011;55925;51.764;6.402;2023-10-09T10:51:37;22.70;;;11.23;;
68886;SDS011;55925;51.764;6.402;2023-10-09T10:54:04;23.92;;;12.63;;
68886;SDS011;55925;51.764;6.402;2023-10-09T10:56:49;23.58;;;11.90;;
68886;SDS011;55925;51.764;6.402;2023-10-09T10:59:16;22.30;;;10.73;;
68886;SDS011;55925;51.764;6.402;2023-10-09T11:01:49;21.95;;;11.98;;
68886;SDS011;55925;51.764;6.402;2023-10-09T11:04:22;23.35;;;11.43;;
68886;SDS011;55925;51.764;6.402;2023-10-09T11:07:01;22.67;;;10.23;;
68886;SDS011;55925;51.764;6.402;2023-10-09T11:09:47;22.15;;;10.90;;
68886;SDS011;55925;51.764;6.402;2023-10-09T11:12:29;20.17;;;10.63;;
68886;SDS011;55925;51.764;6.402;2023-10-09T11:15:07;24.13;;;11.68;;
68886;SDS011;55925;51.764;6.402;2023-10-09T11:17:43;21.08;;;10.23;;
68886;SDS011;55925;51.764;6.402;2023-10-09T11:20:10;30.38;;;11.85;;
68886;SDS011;55925;51.764;6.402;2023-10-09T11:22:57;22.95;;;12.32;;
68886;SDS011;55925;51.764;6.402;2023-10-09T11:25:36;22.23;;;11.55;;
68886;SDS011;55925;51.764;6.402;2023-10-09T11:28:15;22.80;;;11.23;;
68886;SDS011;55925;51.764;6.402;2023-10-09T11:30:53;24.00;;;12.13;;
68886;SDS011;55925;51.764;6.402;2023-10-09T11:33:20;20.38;;;10.57;;
68886;SDS011;55925;51.764;6.402;2023-10-09T11:35:56;19.25;;;10.40;;
68886;SDS011;55925;51.764;6.402;2023-10-09T11:38:23;19.83;;;8.98;;
68886;SDS011;55925;51.764;6.402;2023-10-09T11:40:51;22.88;;;9.57;;
68886;SDS011;55925;51.764;6.402;2023-10-09T11:43:17;17.80;;;9.15;;
68886;SDS011;55925;51.764;6.402;2023-10-09T11:45:49;15.52;;;8.85;;
68886;SDS011;55925;51.764;6.402;2023-10-09T11:48:21;19.80;;;8.35;;
68886;SDS011;55925;51.764;6.402;2023-10-09T11:50:58;16.75;;;8.40;;
68886;SDS011;55925;51.764;6.402;2023-10-09T11:53:27;16.10;;;8.63;;
68886;SDS011;55925;51.764;6.402;2023-10-09T11:55:53;23.50;;;8.73;;
68886;SDS011;55925;51.764;6.402;2023-10-09T11:58:19;18.60;;;9.10;;
68886;SDS011;55925;51.764;6.402;2023-10-09T12:00:51;16.33;;;8.25;;
68886;SDS011;55925;51.764;6.402;2023-10-09T12:03:22;16.98;;;8.27;;
68886;SDS011;55925;51.764;6.402;2023-10-09T12:05:48;15.48;;;7.78;;
68886;SDS011;55925;51.764;6.402;2023-10-09T12:08:14;14.93;;;8.02;;
68886;SDS011;55925;51.764;6.402;2023-10-09T12:10:41;18.77;;;8.07;;
68886;SDS011;55925;51.764;6.402;2023-10-09T12:13:07;19.48;;;8.82;;
68886;SDS011;55925;51.764;6.402;2023-10-09T12:15:34;16.52;;;8.07;;
68886;SDS011;55925;51.764;6.402;2023-10-09T12:18:06;14.73;;;7.60;;
68886;SDS011;55925;51.764;6.402;2023-10-09T12:23:01;16.70;;;8.57;;
68886;SDS011;55925;51.764;6.402;2023-10-09T12:25:30;16.23;;;7.88;;
68886;SDS011;55925;51.764;6.402;2023-10-09T12:27:59;16.42;;;7.95;;
68886;SDS011;55925;51.764;6.402;2023-10-09T12:30:29;17.73;;;7.15;;
68886;SDS011;55925;51.764;6.402;2023-10-09T12:32:58;16.15;;;7.57;;
68886;SDS011;55925;51.764;6.402;2023-10-09T12:35:24;13.82;;;6.63;;
68886;SDS011;55925;51.764;6.402;2023-10-09T12:37:54;16.90;;;6.72;;
68886;SDS011;55925;51.764;6.402;2023-10-09T12:40:20;14.98;;;7.28;;
68886;SDS011;55925;51.764;6.402;2023-10-09T12:42:52;14.77;;;6.88;;
68886;SDS011;55925;51.764;6.402;2023-10-09T12:45:18;14.55;;;6.90;;
68886;SDS011;55925;51.764;6.402;2023-10-09T12:47:51;14.75;;;6.80;;
68886;SDS011;55925;51.764;6.402;2023-10-09T12:50:17;15.48;;;6.50;;
68886;SDS011;55925;51.764;6.402;2023-10-09T12:52:52;14.45;;;6.30;;
68886;SDS011;55925;51.764;6.402;2023-10-09T12:55:18;19.23;;;7.10;;
68886;SDS011;55925;51.764;6.402;2023-10-09T12:57:46;11.15;;;5.78;;
68886;SDS011;55925;51.764;6.402;2023-10-09T13:00:13;12.82;;;6.28;;
68886;SDS011;55925;51.764;6.402;2023-10-09T13:02:50;12.48;;;5.80;;
68886;SDS011;55925;51.764;6.402;2023-10-09T13:05:16;11.95;;;6.20;;
68886;SDS011;55925;51.764;6.402;2023-10-09T13:07:51;13.07;;;7.22;;
68886;SDS011;55925;51.764;6.402;2023-10-09T13:10:18;14.40;;;6.00;;
68886;SDS011;55925;51.764;6.402;2023-10-09T13:12:44;14.68;;;5.70;;
68886;SDS011;55925;51.764;6.402;2023-10-09T13:15:10;12.70;;;6.07;;
68886;SDS011;55925;51.764;6.402;2023-10-09T13:17:37;14.15;;;5.90;;
68886;SDS011;55925;51.764;6.402;2023-10-09T13:20:03;13.20;;;6.55;;
68886;SDS011;55925;51.764;6.402;2023-10-09T13:22:39;16.20;;;6.22;;
68886;SDS011;55925;51.764;6.402;2023-10-09T13:25:06;11.70;;;5.50;;
68886;SDS011;55925;51.764;6.402;2023-10-09T13:27:32;13.07;;;5.95;;
68886;SDS011;55925;51.764;6.402;2023-10-09T13:30:02;14.90;;;6.95;;
68886;SDS011;55925;51.764;6.402;2023-10-09T13:32:31;18.27;;;7.07;;
68886;SDS011;55925;51.764;6.402;2023-10-09T13:35:00;13.80;;;6.80;;
68886;SDS011;55925;51.764;6.402;2023-10-09T13:37:28;12.25;;;5.93;;
68886;SDS011;55925;51.764;6.402;2023-10-09T13:39:56;16.42;;;6.43;;
68886;SDS011;55925;51.764;6.402;2023-10-09T13:42:22;13.32;;;6.22;;
68886;SDS011;55925;51.764;6.402;2023-10-09T13:44:51;14.35;;;6.40;;
68886;SDS011;55925;51.764;6.402;2023-10-09T13:47:20;12.18;;;6.25;;
68886;SDS011;55925;51.764;6.402;2023-10-09T13:49:48;12.35;;;6.50;;
68886;SDS011;55925;51.764;6.402;2023-10-09T13:52:18;13.77;;;6.43;;
68886;SDS011;55925;51.764;6.402;2023-10-09T13:54:47;10.55;;;6.25;;
68886;SDS011;55925;51.764;6.402;2023-10-09T13:57:14;13.95;;;5.78;;
68886;SDS011;55925;51.764;6.402;2023-10-09T13:59:41;13.20;;;5.50;;
68886;SDS011;55925;51.764;6.402;2023-10-09T14:02:09;12.13;;;5.22;;
68886;SDS011;55925;51.764;6.402;2023-10-09T14:04:35;12.80;;;6.55;;
68886;SDS011;55925;51.764;6.402;2023-10-09T14:07:01;11.48;;;6.28;;
68886;SDS011;55925;51.764;6.402;2023-10-09T14:09:30;12.27;;;6.28;;
68886;SDS011;55925;51.764;6.402;2023-10-09T14:11:57;14.27;;;6.28;;
68886;SDS011;55925;51.764;6.402;2023-10-09T14:14:31;14.70;;;6.10;;
68886;SDS011;55925;51.764;6.402;2023-10-09T14:16:57;16.98;;;7.30;;
68886;SDS011;55925;51.764;6.402;2023-10-09T14:19:23;13.48;;;6.65;;
68886;SDS011;55925;51.764;6.402;2023-10-09T14:21:49;12.80;;;5.45;;
68886;SDS011;55925;51.764;6.402;2023-10-09T14:24:16;12.95;;;6.10;;
68886;SDS011;55925;51.764;6.402;2023-10-09T14:26:44;15.88;;;6.72;;
68886;SDS011;55925;51.764;6.402;2023-10-09T14:29:12;13.45;;;5.78;;
68886;SDS011;55925;51.764;6.402;2023-10-09T14:31:44;12.40;;;5.65;;
68886;SDS011;55925;51.764;6.402;2023-10-09T14:34:25;12.60;;;6.40;;
68886;SDS011;55925;51.764;6.402;2023-10-09T14:36:57;18.27;;;7.03;;
68886;SDS011;55925;51.764;6.402;2023-10-09T14:39:25;14.02;;;5.85;;
68886;SDS011;55925;51.764;6.402;2023-10-09T14:41:52;12.15;;;5.90;;
68886;SDS011;55925;51.764;6.402;2023-10-09T14:44:20;10.77;;;5.38;;
68886;SDS011;55925;51.764;6.402;2023-10-09T14:46:48;14.13;;;5.68;;
68886;SDS011;55925;51.764;6.402;2023-10-09T14:49:15;14.40;;;5.35;;
68886;SDS011;55925;51.764;6.402;2023-10-09T14:51:46;10.48;;;5.70;;
68886;SDS011;55925;51.764;6.402;2023-10-09T14:54:12;13.40;;;5.25;;
68886;SDS011;55925;51.764;6.402;2023-10-09T14:56:42;11.20;;;4.80;;
68886;SDS011;55925;51.764;6.402;2023-10-09T14:59:10;10.93;;;4.97;;
68886;SDS011;55925;51.764;6.402;2023-10-09T15:01:37;10.77;;;4.72;;
68886;SDS011;55925;51.764;6.402;2023-10-09T15:04:03;13.65;;;5.50;;
68886;SDS011;55925;51.764;6.402;2023-10-09T15:06:29;9.10;;;4.53;;
68886;SDS011;55925;51.764;6.402;2023-10-09T15:08:59;11.88;;;4.65;;
68886;SDS011;55925;51.764;6.402;2023-10-09T15:11:33;11.88;;;4.30;;
68886;SDS011;55925;51.764;6.402;2023-10-09T15:13:59;11.45;;;4.97;;
68886;SDS011;55925;51.764;6.402;2023-10-09T15:16:25;11.90;;;5.70;;
68886;SDS011;55925;51.764;6.402;2023-10-09T15:18:55;13.63;;;5.28;;
68886;SDS011;55925;51.764;6.402;2023-10-09T15:21:27;10.57;;;4.75;;
68886;SDS011;55925;51.764;6.402;2023-10-09T15:23:57;11.63;;;4.60;;
68886;SDS011;55925;51.764;6.402;2023-10-09T15:26:23;10.27;;;3.97;;
68886;SDS011;55925;51.764;6.402;2023-10-09T15:28:52;18.15;;;5.25;;
68886;SDS011;55925;51.764;6.402;2023-10-09T15:31:19;14.13;;;4.95;;
68886;SDS011;55925;51.764;6.402;2023-10-09T15:33:46;12.52;;;4.25;;